sensor_id;sensor_type;location;lat;lon;timestamp;temperature;humidity
13093;DHT22;6612;49.568;11.000;2023-08-06T00:01:01;20.30;79.70
13093;DHT22;6612;49.568;11.000;2023-08-06T00:03:28;20.30;79.90
13093;DHT22;6612;49.568;11.000;2023-08-06T00:05:55;20.30;80.10
13093;DHT22;6612;49.568;11.000;2023-08-06T00:08:22;20.30;80.20
13093;DHT22;6612;49.568;11.000;2023-08-06T00:10:49;20.30;79.90
13093;DHT22;6612;49.568;11.000;2023-08-06T00:13:17;20.30;79.80
13093;DHT22;6612;49.568;11.000;2023-08-06T00:15:44;20.30;79.30
13093;DHT22;6612;49.568;11.000;2023-08-06T00:18:11;20.20;79.20
13093;DHT22;6612;49.568;11.000;2023-08-06T00:20:39;20.20;79.20
13093;DHT22;6612;49.568;11.000;2023-08-06T00:23:07;20.20;79.00
13093;DHT22;6612;49.568;11.000;2023-08-06T00:25:34;20.20;78.90
13093;DHT22;6612;49.568;11.000;2023-08-06T00:28:01;20.20;78.90
13093;DHT22;6612;49.568;11.000;2023-08-06T00:30:29;20.10;78.80
13093;DHT22;6612;49.568;11.000;2023-08-06T00:32:56;20.10;78.80
13093;DHT22;6612;49.568;11.000;2023-08-06T00:35:22;20.10;78.80
13093;DHT22;6612;49.568;11.000;2023-08-06T00:37:49;20.00;78.80
13093;DHT22;6612;49.568;11.000;2023-08-06T00:40:16;20.00;78.90
13093;DHT22;6612;49.568;11.000;2023-08-06T00:42:46;20.00;79.00
13093;DHT22;6612;49.568;11.000;2023-08-06T00:45:13;20.00;79.80
13093;DHT22;6612;49.568;11.000;2023-08-06T00:47:41;20.00;79.00
13093;DHT22;6612;49.568;11.000;2023-08-06T00:50:09;19.90;78.90
13093;DHT22;6612;49.568;11.000;2023-08-06T00:52:36;19.90;79.10
13093;DHT22;6612;49.568;11.000;2023-08-06T00:55:04;19.90;79.30
13093;DHT22;6612;49.568;11.000;2023-08-06T00:57:32;19.90;79.30
13093;DHT22;6612;49.568;11.000;2023-08-06T00:59:58;19.80;79.20
13093;DHT22;6612;49.568;11.000;2023-08-06T01:02:25;19.80;80.10
13093;DHT22;6612;49.568;11.000;2023-08-06T01:04:54;19.80;79.50
13093;DHT22;6612;49.568;11.000;2023-08-06T01:07:30;19.80;79.60
13093;DHT22;6612;49.568;11.000;2023-08-06T01:10:15;19.80;79.90
13093;DHT22;6612;49.568;11.000;2023-08-06T01:12:50;19.80;79.90
13093;DHT22;6612;49.568;11.000;2023-08-06T01:15:21;19.80;79.80
13093;DHT22;6612;49.568;11.000;2023-08-06T01:17:48;19.70;79.80
13093;DHT22;6612;49.568;11.000;2023-08-06T01:20:17;19.70;79.90
13093;DHT22;6612;49.568;11.000;2023-08-06T01:22:45;19.70;80.00
13093;DHT22;6612;49.568;11.000;2023-08-06T01:25:15;19.70;80.10
13093;DHT22;6612;49.568;11.000;2023-08-06T01:27:46;19.70;80.10
13093;DHT22;6612;49.568;11.000;2023-08-06T01:30:17;19.60;80.20
13093;DHT22;6612;49.568;11.000;2023-08-06T01:32:46;19.60;80.20
13093;DHT22;6612;49.568;11.000;2023-08-06T01:35:15;19.60;80.30
13093;DHT22;6612;49.568;11.000;2023-08-06T01:37:42;19.60;80.40
13093;DHT22;6612;49.568;11.000;2023-08-06T01:40:12;19.60;80.50
13093;DHT22;6612;49.568;11.000;2023-08-06T01:42:39;19.60;80.50
13093;DHT22;6612;49.568;11.000;2023-08-06T01:45:07;19.50;80.50
13093;DHT22;6612;49.568;11.000;2023-08-06T01:47:34;19.50;80.60
13093;DHT22;6612;49.568;11.000;2023-08-06T01:50:01;19.50;80.60
13093;DHT22;6612;49.568;11.000;2023-08-06T01:52:28;19.50;80.60
13093;DHT22;6612;49.568;11.000;2023-08-06T01:54:55;19.50;80.60
13093;DHT22;6612;49.568;11.000;2023-08-06T01:57:24;19.50;80.80
13093;DHT22;6612;49.568;11.000;2023-08-06T01:59:51;19.50;80.90
13093;DHT22;6612;49.568;11.000;2023-08-06T02:02:17;19.40;80.90
13093;DHT22;6612;49.568;11.000;2023-08-06T02:04:45;19.40;81.00
13093;DHT22;6612;49.568;11.000;2023-08-06T02:07:12;19.40;81.10
13093;DHT22;6612;49.568;11.000;2023-08-06T02:09:39;19.40;81.10
13093;DHT22;6612;49.568;11.000;2023-08-06T02:12:06;19.40;81.20
13093;DHT22;6612;49.568;11.000;2023-08-06T02:14:35;19.40;81.20
13093;DHT22;6612;49.568;11.000;2023-08-06T02:17:02;19.40;81.30
13093;DHT22;6612;49.568;11.000;2023-08-06T02:19:28;19.40;81.30
13093;DHT22;6612;49.568;11.000;2023-08-06T02:21:56;19.40;81.30
13093;DHT22;6612;49.568;11.000;2023-08-06T02:24:23;19.40;81.30
13093;DHT22;6612;49.568;11.000;2023-08-06T02:26:49;19.40;81.30
13093;DHT22;6612;49.568;11.000;2023-08-06T02:29:17;19.40;81.40
13093;DHT22;6612;49.568;11.000;2023-08-06T02:31:45;19.30;81.50
13093;DHT22;6612;49.568;11.000;2023-08-06T02:34:12;19.30;81.50
13093;DHT22;6612;49.568;11.000;2023-08-06T02:36:39;19.30;81.60
13093;DHT22;6612;49.568;11.000;2023-08-06T02:39:05;19.30;81.70
13093;DHT22;6612;49.568;11.000;2023-08-06T02:41:32;19.30;81.80
13093;DHT22;6612;49.568;11.000;2023-08-06T02:43:59;19.30;82.00
13093;DHT22;6612;49.568;11.000;2023-08-06T02:46:26;19.30;81.70
13093;DHT22;6612;49.568;11.000;2023-08-06T02:48:54;19.30;81.70
13093;DHT22;6612;49.568;11.000;2023-08-06T02:51:21;19.30;81.40
13093;DHT22;6612;49.568;11.000;2023-08-06T02:53:48;19.30;80.80
13093;DHT22;6612;49.568;11.000;2023-08-06T02:56:15;19.20;79.90
13093;DHT22;6612;49.568;11.000;2023-08-06T02:58:42;19.20;79.90
13093;DHT22;6612;49.568;11.000;2023-08-06T03:01:09;19.20;80.40
13093;DHT22;6612;49.568;11.000;2023-08-06T03:03:36;19.10;80.80
13093;DHT22;6612;49.568;11.000;2023-08-06T03:06:04;19.10;81.20
13093;DHT22;6612;49.568;11.000;2023-08-06T03:08:31;19.10;81.50
13093;DHT22;6612;49.568;11.000;2023-08-06T03:10:58;19.00;81.60
13093;DHT22;6612;49.568;11.000;2023-08-06T03:13:25;19.00;81.80
13093;DHT22;6612;49.568;11.000;2023-08-06T03:15:54;19.00;82.00
13093;DHT22;6612;49.568;11.000;2023-08-06T03:18:21;19.00;82.10
13093;DHT22;6612;49.568;11.000;2023-08-06T03:20:49;19.00;82.30
13093;DHT22;6612;49.568;11.000;2023-08-06T03:23:17;19.00;82.50
13093;DHT22;6612;49.568;11.000;2023-08-06T03:25:44;19.00;82.70
13093;DHT22;6612;49.568;11.000;2023-08-06T03:28:11;19.00;82.80
13093;DHT22;6612;49.568;11.000;2023-08-06T03:30:38;19.00;82.80
13093;DHT22;6612;49.568;11.000;2023-08-06T03:33:05;19.00;82.80
13093;DHT22;6612;49.568;11.000;2023-08-06T03:35:32;18.90;83.60
13093;DHT22;6612;49.568;11.000;2023-08-06T03:37:59;18.90;82.90
13093;DHT22;6612;49.568;11.000;2023-08-06T03:40:27;18.90;82.90
13093;DHT22;6612;49.568;11.000;2023-08-06T03:42:54;18.90;83.00
13093;DHT22;6612;49.568;11.000;2023-08-06T03:45:21;18.90;83.10
13093;DHT22;6612;49.568;11.000;2023-08-06T03:47:48;18.90;83.10
13093;DHT22;6612;49.568;11.000;2023-08-06T03:50:15;18.90;83.80
13093;DHT22;6612;49.568;11.000;2023-08-06T03:52:42;18.90;82.80
13093;DHT22;6612;49.568;11.000;2023-08-06T03:55:09;18.80;82.50
13093;DHT22;6612;49.568;11.000;2023-08-06T03:57:37;18.80;82.20
13093;DHT22;6612;49.568;11.000;2023-08-06T04:00:05;18.80;82.00
13093;DHT22;6612;49.568;11.000;2023-08-06T04:02:32;18.80;81.90
13093;DHT22;6612;49.568;11.000;2023-08-06T04:05:00;18.70;81.70
13093;DHT22;6612;49.568;11.000;2023-08-06T04:07:27;18.70;82.40
13093;DHT22;6612;49.568;11.000;2023-08-06T04:09:55;18.70;81.50
13093;DHT22;6612;49.568;11.000;2023-08-06T04:12:22;18.60;81.40
13093;DHT22;6612;49.568;11.000;2023-08-06T04:14:50;18.60;81.50
13093;DHT22;6612;49.568;11.000;2023-08-06T04:17:18;18.60;82.40
13093;DHT22;6612;49.568;11.000;2023-08-06T04:19:47;18.60;81.90
13093;DHT22;6612;49.568;11.000;2023-08-06T04:22:14;18.50;82.00
13093;DHT22;6612;49.568;11.000;2023-08-06T04:24:41;18.50;82.20
13093;DHT22;6612;49.568;11.000;2023-08-06T04:27:08;18.50;82.40
13093;DHT22;6612;49.568;11.000;2023-08-06T04:29:36;18.50;82.70
13093;DHT22;6612;49.568;11.000;2023-08-06T04:32:07;18.50;83.10
13093;DHT22;6612;49.568;11.000;2023-08-06T04:34:34;18.50;83.40
13093;DHT22;6612;49.568;11.000;2023-08-06T04:37:02;18.50;83.70
13093;DHT22;6612;49.568;11.000;2023-08-06T04:39:29;18.50;83.80
13093;DHT22;6612;49.568;11.000;2023-08-06T04:41:56;18.50;83.80
13093;DHT22;6612;49.568;11.000;2023-08-06T04:44:23;18.50;83.90
13093;DHT22;6612;49.568;11.000;2023-08-06T04:46:50;18.50;84.00
13093;DHT22;6612;49.568;11.000;2023-08-06T04:49:20;18.60;84.20
13093;DHT22;6612;49.568;11.000;2023-08-06T04:51:47;18.60;84.40
13093;DHT22;6612;49.568;11.000;2023-08-06T04:54:14;18.60;84.50
13093;DHT22;6612;49.568;11.000;2023-08-06T04:56:41;18.60;84.60
13093;DHT22;6612;49.568;11.000;2023-08-06T04:59:08;18.60;84.60
13093;DHT22;6612;49.568;11.000;2023-08-06T05:01:35;18.60;84.30
13093;DHT22;6612;49.568;11.000;2023-08-06T05:04:02;18.70;84.30
13093;DHT22;6612;49.568;11.000;2023-08-06T05:06:30;18.70;84.50
13093;DHT22;6612;49.568;11.000;2023-08-06T05:08:58;18.70;84.90
13093;DHT22;6612;49.568;11.000;2023-08-06T05:11:25;18.70;85.40
13093;DHT22;6612;49.568;11.000;2023-08-06T05:13:51;18.80;85.70
13093;DHT22;6612;49.568;11.000;2023-08-06T05:16:18;18.80;86.10
13093;DHT22;6612;49.568;11.000;2023-08-06T05:18:45;18.80;86.40
13093;DHT22;6612;49.568;11.000;2023-08-06T05:21:12;18.90;86.80
13093;DHT22;6612;49.568;11.000;2023-08-06T05:23:41;18.90;87.60
13093;DHT22;6612;49.568;11.000;2023-08-06T05:26:07;19.00;88.20
13093;DHT22;6612;49.568;11.000;2023-08-06T05:28:34;19.10;89.60
13093;DHT22;6612;49.568;11.000;2023-08-06T05:31:03;19.20;89.20
13093;DHT22;6612;49.568;11.000;2023-08-06T05:33:30;19.30;89.70
13093;DHT22;6612;49.568;11.000;2023-08-06T05:35:57;19.40;88.30
13093;DHT22;6612;49.568;11.000;2023-08-06T05:38:24;19.50;87.70
13093;DHT22;6612;49.568;11.000;2023-08-06T05:40:53;19.60;87.40
13093;DHT22;6612;49.568;11.000;2023-08-06T05:43:20;19.60;86.50
13093;DHT22;6612;49.568;11.000;2023-08-06T05:45:49;19.70;86.70
13093;DHT22;6612;49.568;11.000;2023-08-06T05:48:16;19.80;86.90
13093;DHT22;6612;49.568;11.000;2023-08-06T05:50:43;19.80;87.70
13093;DHT22;6612;49.568;11.000;2023-08-06T05:53:10;20.00;87.90
13093;DHT22;6612;49.568;11.000;2023-08-06T05:55:36;20.10;88.00
13093;DHT22;6612;49.568;11.000;2023-08-06T05:58:06;20.30;90.50
13093;DHT22;6612;49.568;11.000;2023-08-06T06:00:33;20.60;92.40
13093;DHT22;6612;49.568;11.000;2023-08-06T06:03:00;21.00;96.40
13093;DHT22;6612;49.568;11.000;2023-08-06T06:05:28;21.70;98.60
13093;DHT22;6612;49.568;11.000;2023-08-06T06:07:55;22.40;98.40
13093;DHT22;6612;49.568;11.000;2023-08-06T06:10:22;23.10;96.90
13093;DHT22;6612;49.568;11.000;2023-08-06T06:12:49;23.80;96.50
13093;DHT22;6612;49.568;11.000;2023-08-06T06:15:17;24.40;95.90
13093;DHT22;6612;49.568;11.000;2023-08-06T06:17:44;25.00;94.80
13093;DHT22;6612;49.568;11.000;2023-08-06T06:20:11;25.70;93.70
13093;DHT22;6612;49.568;11.000;2023-08-06T06:22:38;26.20;91.80
13093;DHT22;6612;49.568;11.000;2023-08-06T06:25:06;26.80;91.30
13093;DHT22;6612;49.568;11.000;2023-08-06T06:27:33;27.40;90.80
13093;DHT22;6612;49.568;11.000;2023-08-06T06:30:00;27.80;84.60
13093;DHT22;6612;49.568;11.000;2023-08-06T06:32:28;28.00;79.90
13093;DHT22;6612;49.568;11.000;2023-08-06T06:34:55;28.10;75.90
13093;DHT22;6612;49.568;11.000;2023-08-06T06:37:22;27.90;73.10
13093;DHT22;6612;49.568;11.000;2023-08-06T06:39:49;27.70;71.10
13093;DHT22;6612;49.568;11.000;2023-08-06T06:42:16;27.50;69.90
13093;DHT22;6612;49.568;11.000;2023-08-06T06:44:43;27.10;68.90
13093;DHT22;6612;49.568;11.000;2023-08-06T06:47:10;26.70;67.80
13093;DHT22;6612;49.568;11.000;2023-08-06T06:49:38;26.40;67.40
13093;DHT22;6612;49.568;11.000;2023-08-06T06:52:05;26.00;66.80
13093;DHT22;6612;49.568;11.000;2023-08-06T06:54:32;25.70;67.30
13093;DHT22;6612;49.568;11.000;2023-08-06T06:56:59;25.30;67.60
13093;DHT22;6612;49.568;11.000;2023-08-06T06:59:26;25.00;67.90
13093;DHT22;6612;49.568;11.000;2023-08-06T07:01:53;24.70;68.20
13093;DHT22;6612;49.568;11.000;2023-08-06T07:04:20;24.40;68.50
13093;DHT22;6612;49.568;11.000;2023-08-06T07:06:49;24.20;69.10
13093;DHT22;6612;49.568;11.000;2023-08-06T07:09:17;24.00;69.20
13093;DHT22;6612;49.568;11.000;2023-08-06T07:11:44;23.80;69.50
13093;DHT22;6612;49.568;11.000;2023-08-06T07:14:11;23.60;70.40
13093;DHT22;6612;49.568;11.000;2023-08-06T07:16:40;23.40;71.20
13093;DHT22;6612;49.568;11.000;2023-08-06T07:19:07;23.30;71.60
13093;DHT22;6612;49.568;11.000;2023-08-06T07:21:33;23.10;72.40
13093;DHT22;6612;49.568;11.000;2023-08-06T07:24:02;23.00;72.80
13093;DHT22;6612;49.568;11.000;2023-08-06T07:26:29;23.00;73.40
13093;DHT22;6612;49.568;11.000;2023-08-06T07:28:56;22.90;73.40
13093;DHT22;6612;49.568;11.000;2023-08-06T07:31:23;22.80;74.00
13093;DHT22;6612;49.568;11.000;2023-08-06T07:33:50;22.80;73.90
13093;DHT22;6612;49.568;11.000;2023-08-06T07:36:17;22.70;73.80
13093;DHT22;6612;49.568;11.000;2023-08-06T07:38:43;22.70;74.70
13093;DHT22;6612;49.568;11.000;2023-08-06T07:41:12;22.70;74.90
13093;DHT22;6612;49.568;11.000;2023-08-06T07:43:39;22.70;76.10
13093;DHT22;6612;49.568;11.000;2023-08-06T07:46:05;22.70;78.60
13093;DHT22;6612;49.568;11.000;2023-08-06T07:48:32;22.90;81.10
13093;DHT22;6612;49.568;11.000;2023-08-06T07:50:59;23.00;80.40
13093;DHT22;6612;49.568;11.000;2023-08-06T07:53:26;23.20;81.60
13093;DHT22;6612;49.568;11.000;2023-08-06T07:55:55;23.40;81.80
13093;DHT22;6612;49.568;11.000;2023-08-06T07:58:24;23.60;80.30
13093;DHT22;6612;49.568;11.000;2023-08-06T08:00:51;23.80;80.50
13093;DHT22;6612;49.568;11.000;2023-08-06T08:03:18;24.00;80.00
13093;DHT22;6612;49.568;11.000;2023-08-06T08:05:46;24.10;79.90
13093;DHT22;6612;49.568;11.000;2023-08-06T08:08:13;24.30;80.10
13093;DHT22;6612;49.568;11.000;2023-08-06T08:10:41;24.50;79.90
13093;DHT22;6612;49.568;11.000;2023-08-06T08:13:08;24.60;79.60
13093;DHT22;6612;49.568;11.000;2023-08-06T08:15:37;24.70;77.80
13093;DHT22;6612;49.568;11.000;2023-08-06T08:18:04;24.80;76.00
13093;DHT22;6612;49.568;11.000;2023-08-06T08:20:31;24.90;75.30
13093;DHT22;6612;49.568;11.000;2023-08-06T08:22:59;24.90;73.50
13093;DHT22;6612;49.568;11.000;2023-08-06T08:25:27;24.90;72.60
13093;DHT22;6612;49.568;11.000;2023-08-06T08:27:54;24.80;71.70
13093;DHT22;6612;49.568;11.000;2023-08-06T08:30:22;24.70;71.50
13093;DHT22;6612;49.568;11.000;2023-08-06T08:32:51;24.60;71.10
13093;DHT22;6612;49.568;11.000;2023-08-06T08:35:18;24.60;71.40
13093;DHT22;6612;49.568;11.000;2023-08-06T08:37:45;24.60;73.10
13093;DHT22;6612;49.568;11.000;2023-08-06T08:40:14;24.60;73.70
13093;DHT22;6612;49.568;11.000;2023-08-06T08:42:41;24.70;72.80
13093;DHT22;6612;49.568;11.000;2023-08-06T08:45:12;24.80;73.10
13093;DHT22;6612;49.568;11.000;2023-08-06T08:47:40;24.90;72.30
13093;DHT22;6612;49.568;11.000;2023-08-06T08:50:10;25.00;73.60
13093;DHT22;6612;49.568;11.000;2023-08-06T08:52:38;25.20;71.00
13093;DHT22;6612;49.568;11.000;2023-08-06T08:55:07;25.20;70.80
13093;DHT22;6612;49.568;11.000;2023-08-06T08:57:35;25.30;71.00
13093;DHT22;6612;49.568;11.000;2023-08-06T09:00:02;25.40;71.50
13093;DHT22;6612;49.568;11.000;2023-08-06T09:02:30;25.50;71.30
13093;DHT22;6612;49.568;11.000;2023-08-06T09:04:59;25.60;71.80
13093;DHT22;6612;49.568;11.000;2023-08-06T09:07:33;25.80;71.40
13093;DHT22;6612;49.568;11.000;2023-08-06T09:10:02;25.90;70.70
13093;DHT22;6612;49.568;11.000;2023-08-06T09:12:30;26.10;71.10
13093;DHT22;6612;49.568;11.000;2023-08-06T09:14:57;26.20;70.10
13093;DHT22;6612;49.568;11.000;2023-08-06T09:17:24;26.30;69.30
13093;DHT22;6612;49.568;11.000;2023-08-06T09:19:51;26.40;69.10
13093;DHT22;6612;49.568;11.000;2023-08-06T09:22:18;26.40;68.40
13093;DHT22;6612;49.568;11.000;2023-08-06T09:24:46;26.40;67.50
13093;DHT22;6612;49.568;11.000;2023-08-06T09:27:14;26.40;66.90
13093;DHT22;6612;49.568;11.000;2023-08-06T09:29:41;26.40;64.90
13093;DHT22;6612;49.568;11.000;2023-08-06T09:32:10;26.30;63.60
13093;DHT22;6612;49.568;11.000;2023-08-06T09:34:39;26.20;63.70
13093;DHT22;6612;49.568;11.000;2023-08-06T09:37:07;26.00;62.70
13093;DHT22;6612;49.568;11.000;2023-08-06T09:39:35;25.90;63.50
13093;DHT22;6612;49.568;11.000;2023-08-06T09:42:03;25.80;64.50
13093;DHT22;6612;49.568;11.000;2023-08-06T09:44:31;25.70;64.30
13093;DHT22;6612;49.568;11.000;2023-08-06T09:47:00;25.70;64.60
13093;DHT22;6612;49.568;11.000;2023-08-06T09:49:28;25.60;64.60
13093;DHT22;6612;49.568;11.000;2023-08-06T09:51:55;25.60;64.80
13093;DHT22;6612;49.568;11.000;2023-08-06T09:54:24;25.50;65.00
13093;DHT22;6612;49.568;11.000;2023-08-06T09:56:52;25.50;65.20
13093;DHT22;6612;49.568;11.000;2023-08-06T09:59:21;25.50;65.10
13093;DHT22;6612;49.568;11.000;2023-08-06T10:01:49;25.50;64.70
13093;DHT22;6612;49.568;11.000;2023-08-06T10:04:17;25.60;65.20
13093;DHT22;6612;49.568;11.000;2023-08-06T10:06:47;25.60;64.60
13093;DHT22;6612;49.568;11.000;2023-08-06T10:09:14;25.60;63.80
13093;DHT22;6612;49.568;11.000;2023-08-06T10:11:42;25.60;64.40
13093;DHT22;6612;49.568;11.000;2023-08-06T10:14:16;25.60;63.40
13093;DHT22;6612;49.568;11.000;2023-08-06T10:16:46;25.60;62.90
13093;DHT22;6612;49.568;11.000;2023-08-06T10:19:15;25.70;63.20
13093;DHT22;6612;49.568;11.000;2023-08-06T10:22:08;25.70;63.30
13093;DHT22;6612;49.568;11.000;2023-08-06T10:24:46;25.70;61.80
13093;DHT22;6612;49.568;11.000;2023-08-06T10:27:13;25.70;61.10
13093;DHT22;6612;49.568;11.000;2023-08-06T10:29:40;25.70;63.00
13093;DHT22;6612;49.568;11.000;2023-08-06T10:32:08;25.70;62.30
13093;DHT22;6612;49.568;11.000;2023-08-06T10:34:54;25.60;61.40
13093;DHT22;6612;49.568;11.000;2023-08-06T10:37:22;25.60;60.10
13093;DHT22;6612;49.568;11.000;2023-08-06T10:39:51;25.50;61.90
13093;DHT22;6612;49.568;11.000;2023-08-06T10:42:22;25.50;61.80
13093;DHT22;6612;49.568;11.000;2023-08-06T10:45:16;25.40;60.80
13093;DHT22;6612;49.568;11.000;2023-08-06T10:47:45;25.40;59.70
13093;DHT22;6612;49.568;11.000;2023-08-06T10:50:13;25.30;61.60
13093;DHT22;6612;49.568;11.000;2023-08-06T10:52:42;25.30;61.80
13093;DHT22;6612;49.568;11.000;2023-08-06T10:55:09;25.30;62.00
13093;DHT22;6612;49.568;11.000;2023-08-06T10:57:36;25.20;61.90
13093;DHT22;6612;49.568;11.000;2023-08-06T11:00:05;25.20;61.80
13093;DHT22;6612;49.568;11.000;2023-08-06T11:02:33;25.10;61.20
13093;DHT22;6612;49.568;11.000;2023-08-06T11:05:09;25.10;61.80
13093;DHT22;6612;49.568;11.000;2023-08-06T11:07:37;25.10;60.70
13093;DHT22;6612;49.568;11.000;2023-08-06T11:10:05;25.10;62.30
13093;DHT22;6612;49.568;11.000;2023-08-06T11:12:33;25.10;61.80
13093;DHT22;6612;49.568;11.000;2023-08-06T11:15:00;25.10;61.90
13093;DHT22;6612;49.568;11.000;2023-08-06T11:17:29;25.20;61.90
13093;DHT22;6612;49.568;11.000;2023-08-06T11:19:56;25.20;62.30
13093;DHT22;6612;49.568;11.000;2023-08-06T11:22:24;25.20;61.80
13093;DHT22;6612;49.568;11.000;2023-08-06T11:24:52;25.20;61.00
13093;DHT22;6612;49.568;11.000;2023-08-06T11:27:19;25.20;61.70
13093;DHT22;6612;49.568;11.000;2023-08-06T11:29:47;25.20;61.40
13093;DHT22;6612;49.568;11.000;2023-08-06T11:32:13;25.20;61.30
13093;DHT22;6612;49.568;11.000;2023-08-06T11:34:41;25.20;61.40
13093;DHT22;6612;49.568;11.000;2023-08-06T11:37:08;25.20;61.50
13093;DHT22;6612;49.568;11.000;2023-08-06T11:39:38;25.20;61.50
13093;DHT22;6612;49.568;11.000;2023-08-06T11:42:06;25.20;60.50
13093;DHT22;6612;49.568;11.000;2023-08-06T11:44:35;25.20;61.00
13093;DHT22;6612;49.568;11.000;2023-08-06T11:47:04;25.20;61.20
13093;DHT22;6612;49.568;11.000;2023-08-06T11:49:38;25.10;61.80
13093;DHT22;6612;49.568;11.000;2023-08-06T11:52:18;25.20;61.90
13093;DHT22;6612;49.568;11.000;2023-08-06T11:54:59;25.20;62.70
13093;DHT22;6612;49.568;11.000;2023-08-06T11:57:29;25.20;62.40
13093;DHT22;6612;49.568;11.000;2023-08-06T12:00:01;25.20;61.90
13093;DHT22;6612;49.568;11.000;2023-08-06T12:02:32;25.20;62.50
13093;DHT22;6612;49.568;11.000;2023-08-06T12:05:03;25.20;61.90
13093;DHT22;6612;49.568;11.000;2023-08-06T12:07:32;25.20;62.60
13093;DHT22;6612;49.568;11.000;2023-08-06T12:10:01;25.10;62.20
13093;DHT22;6612;49.568;11.000;2023-08-06T12:12:28;25.10;62.90
13093;DHT22;6612;49.568;11.000;2023-08-06T12:14:55;25.10;62.80
13093;DHT22;6612;49.568;11.000;2023-08-06T12:17:22;25.10;62.50
13093;DHT22;6612;49.568;11.000;2023-08-06T12:19:49;25.10;62.10
13093;DHT22;6612;49.568;11.000;2023-08-06T12:22:16;25.10;62.40
13093;DHT22;6612;49.568;11.000;2023-08-06T12:24:45;25.10;63.60
13093;DHT22;6612;49.568;11.000;2023-08-06T12:27:13;25.10;63.10
13093;DHT22;6612;49.568;11.000;2023-08-06T12:29:42;25.20;62.60
13093;DHT22;6612;49.568;11.000;2023-08-06T12:32:09;25.10;63.20
13093;DHT22;6612;49.568;11.000;2023-08-06T12:34:38;25.10;62.70
13093;DHT22;6612;49.568;11.000;2023-08-06T12:37:05;25.00;61.90
13093;DHT22;6612;49.568;11.000;2023-08-06T12:39:32;24.80;62.00
13093;DHT22;6612;49.568;11.000;2023-08-06T12:41:59;24.70;62.90
13093;DHT22;6612;49.568;11.000;2023-08-06T12:44:27;24.70;64.50
13093;DHT22;6612;49.568;11.000;2023-08-06T12:46:54;24.60;65.40
13093;DHT22;6612;49.568;11.000;2023-08-06T12:49:22;24.60;66.70
13093;DHT22;6612;49.568;11.000;2023-08-06T12:51:50;24.70;66.60
13093;DHT22;6612;49.568;11.000;2023-08-06T12:54:17;24.70;66.10
13093;DHT22;6612;49.568;11.000;2023-08-06T12:56:44;24.70;66.10
13093;DHT22;6612;49.568;11.000;2023-08-06T12:59:13;24.70;66.30
13093;DHT22;6612;49.568;11.000;2023-08-06T13:01:42;24.70;66.20
13093;DHT22;6612;49.568;11.000;2023-08-06T13:04:09;24.70;65.80
13093;DHT22;6612;49.568;11.000;2023-08-06T13:06:36;24.70;65.50
13093;DHT22;6612;49.568;11.000;2023-08-06T13:09:05;24.60;64.40
13093;DHT22;6612;49.568;11.000;2023-08-06T13:11:32;24.60;64.00
13093;DHT22;6612;49.568;11.000;2023-08-06T13:14:04;24.50;63.30
13093;DHT22;6612;49.568;11.000;2023-08-06T13:16:31;24.50;62.70
13093;DHT22;6612;49.568;11.000;2023-08-06T13:19:00;24.40;63.70
13093;DHT22;6612;49.568;11.000;2023-08-06T13:21:32;24.40;63.80
13093;DHT22;6612;49.568;11.000;2023-08-06T13:24:01;24.40;63.70
13093;DHT22;6612;49.568;11.000;2023-08-06T13:26:28;24.30;64.10
13093;DHT22;6612;49.568;11.000;2023-08-06T13:28:56;24.30;64.50
13093;DHT22;6612;49.568;11.000;2023-08-06T13:31:23;24.30;64.50
13093;DHT22;6612;49.568;11.000;2023-08-06T13:33:51;24.40;64.90
13093;DHT22;6612;49.568;11.000;2023-08-06T13:36:21;24.30;64.90
13093;DHT22;6612;49.568;11.000;2023-08-06T13:38:48;24.40;65.60
13093;DHT22;6612;49.568;11.000;2023-08-06T13:41:15;24.40;64.60
13093;DHT22;6612;49.568;11.000;2023-08-06T13:43:42;24.40;64.90
13093;DHT22;6612;49.568;11.000;2023-08-06T13:46:09;24.40;64.30
13093;DHT22;6612;49.568;11.000;2023-08-06T13:48:40;24.30;64.00
13093;DHT22;6612;49.568;11.000;2023-08-06T13:51:07;24.30;63.80
13093;DHT22;6612;49.568;11.000;2023-08-06T13:53:35;24.30;63.80
13093;DHT22;6612;49.568;11.000;2023-08-06T13:56:02;24.30;63.80
13093;DHT22;6612;49.568;11.000;2023-08-06T13:58:29;24.30;63.80
13093;DHT22;6612;49.568;11.000;2023-08-06T14:00:56;24.30;63.50
13093;DHT22;6612;49.568;11.000;2023-08-06T14:03:23;24.20;63.30
13093;DHT22;6612;49.568;11.000;2023-08-06T14:05:50;24.20;63.40
13093;DHT22;6612;49.568;11.000;2023-08-06T14:08:18;24.20;63.30
13093;DHT22;6612;49.568;11.000;2023-08-06T14:10:46;24.10;63.30
13093;DHT22;6612;49.568;11.000;2023-08-06T14:13:13;24.10;63.60
13093;DHT22;6612;49.568;11.000;2023-08-06T14:15:40;24.10;63.80
13093;DHT22;6612;49.568;11.000;2023-08-06T14:18:07;24.00;64.40
13093;DHT22;6612;49.568;11.000;2023-08-06T14:20:35;24.00;63.40
13093;DHT22;6612;49.568;11.000;2023-08-06T14:23:02;23.90;63.30
13093;DHT22;6612;49.568;11.000;2023-08-06T14:25:29;23.80;63.20
13093;DHT22;6612;49.568;11.000;2023-08-06T14:27:57;23.70;63.30
13093;DHT22;6612;49.568;11.000;2023-08-06T14:30:24;23.60;63.10
13093;DHT22;6612;49.568;11.000;2023-08-06T14:32:51;23.50;63.10
13093;DHT22;6612;49.568;11.000;2023-08-06T14:35:18;23.40;63.10
13093;DHT22;6612;49.568;11.000;2023-08-06T14:37:45;23.30;63.00
13093;DHT22;6612;49.568;11.000;2023-08-06T14:40:12;23.20;62.80
13093;DHT22;6612;49.568;11.000;2023-08-06T14:42:39;23.10;62.60
13093;DHT22;6612;49.568;11.000;2023-08-06T14:45:08;22.90;62.40
13093;DHT22;6612;49.568;11.000;2023-08-06T14:47:35;22.80;62.20
13093;DHT22;6612;49.568;11.000;2023-08-06T14:50:02;22.70;62.50
13093;DHT22;6612;49.568;11.000;2023-08-06T14:52:29;22.60;62.80
13093;DHT22;6612;49.568;11.000;2023-08-06T14:54:57;22.40;63.10
13093;DHT22;6612;49.568;11.000;2023-08-06T14:57:23;22.40;63.60
13093;DHT22;6612;49.568;11.000;2023-08-06T14:59:53;22.30;63.90
13093;DHT22;6612;49.568;11.000;2023-08-06T15:02:22;22.20;64.40
13093;DHT22;6612;49.568;11.000;2023-08-06T15:04:49;22.20;64.20
13093;DHT22;6612;49.568;11.000;2023-08-06T15:07:16;22.10;64.50
13093;DHT22;6612;49.568;11.000;2023-08-06T15:09:44;22.10;64.60
13093;DHT22;6612;49.568;11.000;2023-08-06T15:12:10;22.00;64.20
13093;DHT22;6612;49.568;11.000;2023-08-06T15:14:38;22.00;64.40
13093;DHT22;6612;49.568;11.000;2023-08-06T15:17:05;21.90;64.60
13093;DHT22;6612;49.568;11.000;2023-08-06T15:19:33;21.90;64.50
13093;DHT22;6612;49.568;11.000;2023-08-06T15:22:00;21.80;64.20
13093;DHT22;6612;49.568;11.000;2023-08-06T15:24:27;21.80;65.20
13093;DHT22;6612;49.568;11.000;2023-08-06T15:26:53;21.70;64.60
13093;DHT22;6612;49.568;11.000;2023-08-06T15:29:20;21.70;64.80
13093;DHT22;6612;49.568;11.000;2023-08-06T15:31:47;21.60;64.80
13093;DHT22;6612;49.568;11.000;2023-08-06T15:34:15;21.60;64.80